Главная страница
METAR-TAF:

METAR-TAF

Аэропорты :

Порт-Морсби, Папуа - Новая Гвинея

широта: 09-26S, долгота: 147-13E, высота над уровнем моря: 38 м

Текущие метеонаблюдения

Эта сводка был подготовлена 26 минут назад, в 08:00 UTC
Ветер 15 Узел от юго-юго-восточный
Температура 28°C
Влажность 84%
Давление 1008 hPa
Видимость 10 км и более
Отдельные облака на высоте 4000 фута
Отдельные облака на высоте 10000 фута
мгла,

METAR: AYPY 260800Z 15015KT 9999 HZ SCT040 SCT100 28/25 Q1008

Время: 18:26 (08:26 UTC)

Прогноз

Эта сводка был подготовлена 5 часа и 26 минут назад, в 03:00 UTC
Прогноз действительный с 26-го 06 UTC до 27-го 06 UTC
Ветер 10 Узел от юго-юго-восточный
Видимость 10 км и более
Отдельные облака на высоте 2000 фута
Отдельные облака на высоте 14000 фута

TAF: AYPY 260300Z 2606/2706 15010KT 9999 SCT020 SCT140

Метеонаблюдения и прогнозы для более 4000 аэропортов (сводки METAR и TAF).

Имеющиеся станции представлены на карте желтыми и красными точками.

Чтобы увидеть название станции, наведите на нее мышь.

Затем щелкните, чтобы увидеть метеонаблюдения и метеопрогнозы.

Управление картой: чтобы увеличить масштаб, щелкните зеленые кнопки с черным крестиком; чтобы уменьшить масштаб, щелкните зеленую кнопку с тире; для просмотра соседних карт щелкайте зеленые стрелки.


METAR-TAF: